Time;durP1;ratioP1;P1;durP2;ratioP2;P2;SDS_P1;SDS_P2;PMS_P1;PMS_P2;Temp;Humidity;BMP_temperature;BMP_pressure;BME280_temperature;BME280_humidity;BME280_pressure;Samples;Min_cycle;Max_cycle;Signal;HPM_P1;HPM_P2
2021/06/27 00:00:07;;;;;;;;;;;21.30;72.30;;;;;;4995446;28;1458;-71
2021/06/27 00:02:33;;;;;;;;;;;21.30;72.40;;;;;;4995170;28;1182;-72
2021/06/27 00:04:58;;;;;;;;;;;21.30;72.30;;;;;;4994205;28;1875;-70
2021/06/27 00:07:23;;;;;;;;;;;21.30;72.30;;;;;;4995103;28;1359;-72
2021/06/27 00:09:49;;;;;;;;;;;21.30;72.40;;;;;;4995056;28;1531;-71
2021/06/27 00:12:14;;;;;;;;;;;21.30;72.30;;;;;;4995089;28;1551;-71
2021/06/27 00:14:40;;;;;;;;;;;21.30;72.30;;;;;;4994117;28;1255;-71
2021/06/27 00:17:05;;;;;;;;;;;21.30;72.30;;;;;;4993594;28;1595;-72
2021/06/27 00:19:31;;;;;;;;;;;21.30;72.30;;;;;;4994553;28;1426;-70
2021/06/27 00:21:56;;;;;;;;;;;21.30;72.40;;;;;;4993507;28;1266;-72
2021/06/27 00:24:22;;;;;;;;;;;21.30;72.40;;;;;;4992289;28;1903;-71
2021/06/27 00:26:47;;;;;;;;;;;21.30;72.30;;;;;;4991691;28;1086;-71
2021/06/27 00:29:13;;;;;;;;;;;21.30;72.30;;;;;;4975594;28;1306;-70
2021/06/27 00:31:38;;;;;;;;;;;21.30;72.30;;;;;;4974844;28;1141;-72
2021/06/27 00:34:04;;;;;;;;;;;21.30;72.30;;;;;;4992139;28;1299;-72
2021/06/27 00:36:29;;;;;;;;;;;21.30;72.30;;;;;;4976639;28;1195;-71
2021/06/27 00:38:55;;;;;;;;;;;21.30;72.30;;;;;;4993489;28;1222;-70
2021/06/27 00:41:20;;;;;;;;;;;21.30;72.40;;;;;;4992214;28;1121;-70
2021/06/27 00:43:45;;;;;;;;;;;21.30;72.40;;;;;;4993002;28;1958;-70
2021/06/27 00:46:11;;;;;;;;;;;21.30;72.30;;;;;;4974928;28;1344;-70
2021/06/27 00:48:36;;;;;;;;;;;21.30;72.40;;;;;;4975085;28;1206;-70
2021/06/27 00:51:02;;;;;;;;;;;21.30;72.40;;;;;;4992223;28;1117;-70
2021/06/27 00:53:28;;;;;;;;;;;21.30;72.40;;;;;;4991136;28;1376;-70
2021/06/27 00:55:56;;;;;;;;;;;21.30;72.40;;;;;;4991796;28;1254;-72
2021/06/27 00:58:28;;;;;;;;;;;21.30;72.40;;;;;;4984552;28;1198;-72
2021/06/27 01:00:54;;;;;;;;;;;21.30;72.40;;;;;;4966636;28;1126;-71
2021/06/27 01:03:19;;;;;;;;;;;21.30;72.40;;;;;;4975710;28;1093;-72
2021/06/27 01:05:45;;;;;;;;;;;21.30;72.40;;;;;;4993641;28;1910;-72
2021/06/27 01:08:10;;;;;;;;;;;21.30;72.40;;;;;;4994044;28;1093;-71
2021/06/27 01:10:36;;;;;;;;;;;21.30;72.40;;;;;;4992408;28;1078;-72
2021/06/27 01:13:01;;;;;;;;;;;21.30;72.40;;;;;;4993287;28;1132;-72
2021/06/27 01:15:26;;;;;;;;;;;21.30;72.40;;;;;;4992760;28;1196;-72
2021/06/27 01:17:52;;;;;;;;;;;21.30;72.40;;;;;;4976359;28;1192;-73
2021/06/27 01:20:19;;;;;;;;;;;21.30;72.40;;;;;;4992080;28;1093;-72
2021/06/27 01:22:45;;;;;;;;;;;21.30;72.40;;;;;;4992463;28;1078;-71
2021/06/27 01:25:11;;;;;;;;;;;21.30;72.40;;;;;;4991287;28;1923;-72
2021/06/27 01:27:36;;;;;;;;;;;21.30;72.40;;;;;;4992368;28;1074;-73
2021/06/27 01:30:02;;;;;;;;;;;21.30;72.40;;;;;;4991798;28;1094;-72
2021/06/27 01:32:27;;;;;;;;;;;21.30;72.40;;;;;;4992996;28;1172;-72
2021/06/27 01:34:53;;;;;;;;;;;21.30;72.50;;;;;;4991638;28;1295;-73
2021/06/27 01:37:18;;;;;;;;;;;21.30;72.40;;;;;;4984130;28;1133;-72
2021/06/27 01:39:44;;;;;;;;;;;21.30;72.40;;;;;;4987339;28;1102;-73
2021/06/27 01:42:09;;;;;;;;;;;21.30;72.40;;;;;;4991220;28;1144;-73
2021/06/27 01:44:35;;;;;;;;;;;21.30;72.50;;;;;;4992310;28;1914;-72
2021/06/27 01:47:00;;;;;;;;;;;21.30;73.20;;;;;;4991883;28;1081;-72
2021/06/27 01:49:26;;;;;;;;;;;21.30;72.40;;;;;;4975853;28;1350;-73
2021/06/27 01:51:51;;;;;;;;;;;21.30;72.50;;;;;;4975178;28;1040;-73
2021/06/27 01:54:17;;;;;;;;;;;21.30;72.50;;;;;;4992294;28;1295;-73
2021/06/27 01:56:42;;;;;;;;;;;21.30;72.50;;;;;;4975459;28;1271;-71
2021/06/27 01:59:09;;;;;;;;;;;21.30;72.50;;;;;;4991159;28;1085;-71
2021/06/27 02:01:37;;;;;;;;;;;21.30;72.50;;;;;;4993273;28;1167;-72
2021/06/27 02:04:06;;;;;;;;;;;21.30;72.50;;;;;;4989576;28;1959;-71
2021/06/27 02:06:35;;;;;;;;;;;21.30;72.50;;;;;;4993139;28;1127;-71
2021/06/27 02:09:01;;;;;;;;;;;21.30;72.50;;;;;;4991395;28;1097;-71
2021/06/27 02:11:26;;;;;;;;;;;21.30;72.50;;;;;;4992957;28;1089;-72
2021/06/27 02:13:53;;;;;;;;;;;21.30;72.50;;;;;;4990547;28;1339;-72
2021/06/27 02:16:18;;;;;;;;;;;21.30;72.50;;;;;;5037879;23;2179;-67
2021/06/27 02:18:44;;;;;;;;;;;21.30;73.20;;;;;;5021166;28;1721;-66
2021/06/27 02:21:11;;;;;;;;;;;21.30;72.50;;;;;;5014073;28;1386;-68
2021/06/27 02:23:37;;;;;;;;;;;21.30;72.50;;;;;;5031834;28;1492;-67
2021/06/27 02:26:02;;;;;;;;;;;21.30;72.50;;;;;;5031675;28;1910;-67
2021/06/27 02:28:28;;;;;;;;;;;21.30;72.50;;;;;;5014405;28;1124;-66
2021/06/27 02:30:53;;;;;;;;;;;21.30;72.50;;;;;;5014352;28;1175;-65
2021/06/27 02:33:19;;;;;;;;;;;21.30;72.50;;;;;;5000735;28;1268;-67
2021/06/27 02:35:44;;;;;;;;;;;21.30;72.50;;;;;;5032087;28;1194;-66
2021/06/27 02:38:10;;;;;;;;;;;21.30;72.50;;;;;;5014844;28;2035;-67
2021/06/27 02:40:35;;;;;;;;;;;21.30;72.50;;;;;;5014043;28;1419;-66
2021/06/27 02:43:01;;;;;;;;;;;21.30;72.60;;;;;;5031535;28;1213;-67
2021/06/27 02:45:26;;;;;;;;;;;21.30;72.50;;;;;;5014192;28;1902;-67
2021/06/27 02:47:52;;;;;;;;;;;21.30;72.60;;;;;;5014208;28;1756;-67
2021/06/27 02:50:17;;;;;;;;;;;21.30;72.50;;;;;;5034792;28;1383;-67
2021/06/27 02:52:43;;;;;;;;;;;21.30;72.50;;;;;;5035277;28;1751;-67
2021/06/27 02:55:09;;;;;;;;;;;21.30;72.50;;;;;;5017216;28;1672;-67
2021/06/27 02:57:34;;;;;;;;;;;21.30;72.50;;;;;;5035714;28;1748;-67
2021/06/27 03:00:00;;;;;;;;;;;21.30;72.50;;;;;;5036173;28;1685;-67
2021/06/27 03:02:25;;;;;;;;;;;21.30;72.50;;;;;;5035504;28;1458;-67
2021/06/27 03:04:51;;;;;;;;;;;21.30;72.50;;;;;;5034444;28;1973;-67
2021/06/27 03:07:16;;;;;;;;;;;21.30;72.50;;;;;;5017673;28;1455;-67
2021/06/27 03:09:41;;;;;;;;;;;21.30;72.50;;;;;;5035627;28;1364;-67
2021/06/27 03:12:07;;;;;;;;;;;21.30;72.50;;;;;;5035197;28;1346;-68
2021/06/27 03:14:33;;;;;;;;;;;21.30;72.50;;;;;;5034807;28;1211;-68
2021/06/27 03:16:58;;;;;;;;;;;21.30;72.60;;;;;;5035752;28;1380;-68
2021/06/27 03:19:23;;;;;;;;;;;21.30;72.50;;;;;;5035320;28;1041;-66
2021/06/27 03:21:49;;;;;;;;;;;21.30;72.50;;;;;;5035338;28;1408;-68
2021/06/27 03:24:14;;;;;;;;;;;21.30;72.60;;;;;;5016756;28;1906;-68
2021/06/27 03:26:40;;;;;;;;;;;21.30;72.60;;;;;;5017051;28;1405;-67
2021/06/27 03:29:06;;;;;;;;;;;21.30;72.60;;;;;;5035126;28;1638;-68
2021/06/27 03:31:31;;;;;;;;;;;21.30;72.60;;;;;;5034664;28;1441;-68
2021/06/27 03:33:57;;;;;;;;;;;21.30;72.60;;;;;;5016939;28;1659;-68
2021/06/27 03:36:22;;;;;;;;;;;21.30;72.60;;;;;;5035005;28;1509;-67
2021/06/27 03:38:55;;;;;;;;;;;21.30;72.60;;;;;;5035016;28;1683;-68
2021/06/27 03:41:22;;;;;;;;;;;21.30;72.60;;;;;;5034279;28;1662;-68
2021/06/27 03:43:48;;;;;;;;;;;21.30;72.60;;;;;;5034252;28;1894;-67
2021/06/27 03:46:14;;;;;;;;;;;21.30;72.60;;;;;;5034435;28;1500;-67
2021/06/27 03:48:39;;;;;;;;;;;21.30;72.60;;;;;;5035113;28;1361;-68
2021/06/27 03:51:05;;;;;;;;;;;21.30;72.60;;;;;;5016699;28;1664;-67
2021/06/27 03:53:30;;;;;;;;;;;21.30;72.60;;;;;;5034211;28;1391;-67
2021/06/27 03:55:58;;;;;;;;;;;21.30;72.60;;;;;;5033923;28;1502;-67
2021/06/27 03:58:26;;;;;;;;;;;21.30;72.60;;;;;;5034639;28;943;-67
2021/06/27 04:00:51;;;;;;;;;;;21.30;72.60;;;;;;5033358;28;1746;-67
2021/06/27 04:03:17;;;;;;;;;;;21.30;72.60;;;;;;5016312;28;1642;-68
2021/06/27 04:05:42;;;;;;;;;;;21.30;72.60;;;;;;5034322;28;1898;-67
2021/06/27 04:08:08;;;;;;;;;;;21.30;73.30;;;;;;5034108;28;1208;-66
2021/06/27 04:10:33;;;;;;;;;;;21.30;72.60;;;;;;5034487;28;1680;-68
2021/06/27 04:12:59;;;;;;;;;;;21.30;72.60;;;;;;5016045;28;1662;-67
2021/06/27 04:15:24;;;;;;;;;;;21.30;72.60;;;;;;5033972;28;1379;-67
2021/06/27 04:17:50;;;;;;;;;;;21.30;72.60;;;;;;5034043;28;1344;-68
2021/06/27 04:20:15;;;;;;;;;;;21.30;72.60;;;;;;5016280;28;1447;-67
2021/06/27 04:22:40;;;;;;;;;;;21.30;72.60;;;;;;5034186;28;1369;-66
2021/06/27 04:25:07;;;;;;;;;;;21.30;72.60;;;;;;5033473;28;1968;-65
2021/06/27 04:27:32;;;;;;;;;;;21.30;72.60;;;;;;5016515;28;1345;-65
2021/06/27 04:29:57;;;;;;;;;;;21.30;72.60;;;;;;5033558;28;1462;-67
2021/06/27 04:32:23;;;;;;;;;;;21.30;72.60;;;;;;5016447;28;1562;-67
2021/06/27 04:34:49;;;;;;;;;;;21.30;72.60;;;;;;5033040;28;1400;-67
2021/06/27 04:37:14;;;;;;;;;;;21.30;72.60;;;;;;5033955;28;1334;-67
2021/06/27 04:39:39;;;;;;;;;;;21.30;72.60;;;;;;5033449;28;1643;-67
2021/06/27 04:42:05;;;;;;;;;;;21.30;72.60;;;;;;5033762;28;1139;-67
2021/06/27 04:44:30;;;;;;;;;;;21.30;72.60;;;;;;5032802;28;1914;-67
2021/06/27 04:46:56;;;;;;;;;;;21.30;72.60;;;;;;5033977;28;1676;-67
2021/06/27 04:49:21;;;;;;;;;;;21.30;72.60;;;;;;5016003;28;1729;-65
2021/06/27 04:51:47;;;;;;;;;;;21.30;72.60;;;;;;5032958;28;1148;-67
2021/06/27 04:54:12;;;;;;;;;;;21.30;72.60;;;;;;5033008;28;1669;-68
2021/06/27 04:56:37;;;;;;;;;;;21.30;72.60;;;;;;5033518;28;1370;-67
2021/06/27 04:59:03;;;;;;;;;;;21.30;72.60;;;;;;5033624;28;1658;-67
2021/06/27 05:01:28;;;;;;;;;;;21.30;72.60;;;;;;5032707;28;1634;-67
2021/06/27 05:03:54;;;;;;;;;;;21.30;72.60;;;;;;5032668;28;1964;-67
2021/06/27 05:06:19;;;;;;;;;;;21.30;72.60;;;;;;5032936;28;1364;-67
2021/06/27 05:08:45;;;;;;;;;;;21.30;72.70;;;;;;5015516;28;1644;-67
2021/06/27 05:11:10;;;;;;;;;;;21.30;72.60;;;;;;5033222;28;1341;-67
2021/06/27 05:13:35;;;;;;;;;;;21.30;72.60;;;;;;5031688;28;1393;-67
2021/06/27 05:16:01;;;;;;;;;;;21.30;72.60;;;;;;5032601;28;1345;-67
2021/06/27 05:18:26;;;;;;;;;;;21.30;72.60;;;;;;5014596;28;1633;-67
2021/06/27 05:20:52;;;;;;;;;;;21.30;72.60;;;;;;5015441;28;1366;-67
2021/06/27 05:23:17;;;;;;;;;;;21.30;72.60;;;;;;5031935;28;1363;-68
2021/06/27 05:25:43;;;;;;;;;;;21.30;72.60;;;;;;5032859;28;1902;-68
2021/06/27 05:28:08;;;;;;;;;;;21.30;72.60;;;;;;5014347;28;1677;-67
2021/06/27 05:30:34;;;;;;;;;;;21.30;72.60;;;;;;5032887;28;1198;-67
2021/06/27 05:32:59;;;;;;;;;;;21.30;72.60;;;;;;5014220;28;1204;-67
2021/06/27 05:35:25;;;;;;;;;;;21.30;72.60;;;;;;5032820;28;1498;-67
2021/06/27 05:37:50;;;;;;;;;;;21.30;72.60;;;;;;5032319;28;1481;-68
2021/06/27 05:40:16;;;;;;;;;;;21.30;72.60;;;;;;5032886;28;1492;-67
2021/06/27 05:42:41;;;;;;;;;;;21.30;72.60;;;;;;5015519;28;1416;-67
2021/06/27 05:45:07;;;;;;;;;;;21.30;72.60;;;;;;5030477;28;1914;-68
2021/06/27 05:47:32;;;;;;;;;;;21.30;72.60;;;;;;5014906;28;1681;-67
2021/06/27 05:49:58;;;;;;;;;;;21.30;72.60;;;;;;5031606;28;1569;-67
2021/06/27 05:52:23;;;;;;;;;;;21.30;72.60;;;;;;5015277;28;1609;-68
2021/06/27 05:54:49;;;;;;;;;;;21.30;72.60;;;;;;5013762;28;1715;-67
2021/06/27 05:57:14;;;;;;;;;;;21.30;72.70;;;;;;5014807;28;1607;-67
2021/06/27 05:59:40;;;;;;;;;;;21.30;72.60;;;;;;5032386;28;1390;-65
2021/06/27 06:02:05;;;;;;;;;;;21.30;72.60;;;;;;5014969;28;1298;-67
2021/06/27 06:04:30;;;;;;;;;;;21.30;72.60;;;;;;5031820;28;1963;-67
2021/06/27 06:06:56;;;;;;;;;;;21.30;72.60;;;;;;5032318;28;1323;-66
2021/06/27 06:09:21;;;;;;;;;;;21.30;72.40;;;;;;5032158;28;1459;-67
2021/06/27 06:11:47;;;;;;;;;;;21.30;72.40;;;;;;5021790;28;2024;-69
2021/06/27 06:14:12;;;;;;;;;;;21.30;72.40;;;;;;5024548;28;1924;-69
2021/06/27 06:16:38;;;;;;;;;;;21.30;72.40;;;;;;5031068;28;1520;-69
2021/06/27 06:19:04;;;;;;;;;;;21.30;72.40;;;;;;5013470;28;1388;-65
2021/06/27 06:21:29;;;;;;;;;;;21.30;72.40;;;;;;5014678;28;1384;-65
2021/06/27 06:23:54;;;;;;;;;;;21.30;72.40;;;;;;5031493;28;1914;-65
2021/06/27 06:26:20;;;;;;;;;;;21.30;72.50;;;;;;5035537;28;1714;-65
2021/06/27 06:28:45;;;;;;;;;;;21.30;72.60;;;;;;5017529;28;1386;-65
2021/06/27 06:31:11;;;;;;;;;;;21.30;72.60;;;;;;5035485;28;1688;-64
2021/06/27 06:33:36;;;;;;;;;;;21.30;72.60;;;;;;5017115;28;1683;-64
2021/06/27 06:36:02;;;;;;;;;;;21.30;72.60;;;;;;5036093;28;1718;-66
2021/06/27 06:38:27;;;;;;;;;;;21.30;72.60;;;;;;5035683;28;1394;-65
2021/06/27 06:40:53;;;;;;;;;;;21.30;72.60;;;;;;5036200;28;1443;-67
2021/06/27 06:43:18;;;;;;;;;;;21.30;72.60;;;;;;5035484;28;1163;-67
2021/06/27 06:45:44;;;;;;;;;;;21.30;72.60;;;;;;5036073;28;1949;-66
2021/06/27 06:48:09;;;;;;;;;;;21.30;72.60;;;;;;5035348;28;1448;-67
2021/06/27 06:50:34;;;;;;;;;;;21.30;72.60;;;;;;5035507;28;1421;-66
2021/06/27 06:53:00;;;;;;;;;;;21.30;72.60;;;;;;5035192;28;1621;-67
2021/06/27 06:55:27;;;;;;;;;;;21.30;72.50;;;;;;5035959;28;1492;-67
2021/06/27 06:57:52;;;;;;;;;;;21.30;72.50;;;;;;5018166;28;1637;-67
2021/06/27 07:00:18;;;;;;;;;;;21.30;72.60;;;;;;5035496;28;1667;-67
2021/06/27 07:02:43;;;;;;;;;;;21.30;72.60;;;;;;5017874;28;1553;-67
2021/06/27 07:05:09;;;;;;;;;;;21.30;72.50;;;;;;5017030;28;1953;-67
2021/06/27 07:07:34;;;;;;;;;;;21.30;72.50;;;;;;5017776;28;1401;-66
2021/06/27 07:10:00;;;;;;;;;;;21.30;72.50;;;;;;5018151;28;1538;-67
2021/06/27 07:12:25;;;;;;;;;;;21.30;72.50;;;;;;5035768;28;1664;-66
2021/06/27 07:14:51;;;;;;;;;;;21.30;72.40;;;;;;5035184;28;1465;-67
2021/06/27 07:17:16;;;;;;;;;;;21.30;72.40;;;;;;5035482;28;1683;-66
2021/06/27 07:19:41;;;;;;;;;;;21.30;72.30;;;;;;5035409;28;1615;-66
2021/06/27 07:22:07;;;;;;;;;;;21.30;72.40;;;;;;5035329;28;1700;-67
2021/06/27 07:24:32;;;;;;;;;;;21.30;72.40;;;;;;5034369;28;1902;-67
2021/06/27 07:26:58;;;;;;;;;;;21.30;72.30;;;;;;5017502;28;1598;-67
2021/06/27 07:29:23;;;;;;;;;;;21.30;72.40;;;;;;5035363;28;1382;-67
2021/06/27 07:31:49;;;;;;;;;;;21.30;72.40;;;;;;5035272;28;1611;-67
2021/06/27 07:34:14;;;;;;;;;;;21.30;72.40;;;;;;5016812;28;1603;-67
2021/06/27 07:36:40;;;;;;;;;;;21.30;72.50;;;;;;5034603;28;1442;-66
2021/06/27 07:39:06;;;;;;;;;;;21.30;72.50;;;;;;5034921;28;1353;-66
2021/06/27 07:41:31;;;;;;;;;;;21.30;72.50;;;;;;5034956;28;1671;-67
2021/06/27 07:43:57;;;;;;;;;;;21.30;72.50;;;;;;5034327;28;1910;-67
2021/06/27 07:46:22;;;;;;;;;;;21.30;72.50;;;;;;5034566;28;1606;-66
2021/06/27 07:48:48;;;;;;;;;;;21.30;72.50;;;;;;5034956;28;1405;-66
2021/06/27 07:51:13;;;;;;;;;;;21.30;72.40;;;;;;5034425;28;1389;-66
2021/06/27 07:53:38;;;;;;;;;;;21.30;72.40;;;;;;5034093;28;1369;-66
2021/06/27 07:56:04;;;;;;;;;;;21.30;72.40;;;;;;5034222;28;1189;-67
2021/06/27 07:58:29;;;;;;;;;;;21.30;72.50;;;;;;5017376;28;1397;-67
2021/06/27 08:00:55;;;;;;;;;;;21.30;72.40;;;;;;5034429;28;1552;-67
2021/06/27 08:03:20;;;;;;;;;;;21.30;72.50;;;;;;5033853;28;1386;-67
2021/06/27 08:05:46;;;;;;;;;;;21.30;72.40;;;;;;5034406;28;1898;-67
2021/06/27 08:08:12;;;;;;;;;;;21.30;72.40;;;;;;5034510;28;1394;-67
2021/06/27 08:10:37;;;;;;;;;;;21.30;72.50;;;;;;5017188;28;1650;-66
2021/06/27 08:13:03;;;;;;;;;;;21.30;72.40;;;;;;5033508;28;1677;-66
2021/06/27 08:15:28;;;;;;;;;;;21.30;72.50;;;;;;5055128;22;1926;-71
2021/06/27 08:17:54;;;;;;;;;;;21.30;72.40;;;;;;5032769;28;997;-71
2021/06/27 08:20:20;;;;;;;;;;;21.30;72.40;;;;;;5016288;28;1822;-70
2021/06/27 08:22:45;;;;;;;;;;;21.30;72.40;;;;;;5033673;28;1261;-72
2021/06/27 08:25:11;;;;;;;;;;;21.30;72.50;;;;;;5015362;28;1973;-71
2021/06/27 08:27:36;;;;;;;;;;;21.30;72.50;;;;;;5016345;28;1478;-71
2021/06/27 08:30:04;;;;;;;;;;;21.30;72.50;;;;;;5016352;28;1781;-71
2021/06/27 08:32:30;;;;;;;;;;;21.30;72.50;;;;;;5002846;28;1537;-71
2021/06/27 08:34:56;;;;;;;;;;;21.30;72.60;;;;;;5013226;28;1820;-72
2021/06/27 08:37:21;;;;;;;;;;;21.30;72.50;;;;;;5013884;28;1671;-71
2021/06/27 08:39:47;;;;;;;;;;;21.30;72.50;;;;;;5020276;28;1814;-71
2021/06/27 08:42:12;;;;;;;;;;;21.30;72.50;;;;;;5020450;28;778;-71
2021/06/27 08:44:38;;;;;;;;;;;21.30;72.50;;;;;;4995559;28;1894;-71
2021/06/27 08:47:03;;;;;;;;;;;21.30;72.40;;;;;;4996055;28;1257;-72
2021/06/27 08:49:28;;;;;;;;;;;21.30;72.30;;;;;;4996287;28;1354;-71
2021/06/27 08:51:55;;;;;;;;;;;21.30;72.30;;;;;;4976877;28;1364;-71
2021/06/27 08:54:20;;;;;;;;;;;21.30;72.30;;;;;;5011135;28;1613;-71
2021/06/27 08:56:46;;;;;;;;;;;21.30;72.20;;;;;;5013929;28;1200;-71
2021/06/27 08:59:11;;;;;;;;;;;21.30;72.20;;;;;;4995883;28;1626;-70
2021/06/27 09:01:36;;;;;;;;;;;21.30;72.30;;;;;;5014122;28;1287;-71
2021/06/27 09:04:02;;;;;;;;;;;21.30;72.30;;;;;;5031563;28;1957;-70
2021/06/27 09:06:28;;;;;;;;;;;21.30;72.30;;;;;;5033123;28;1387;-70
2021/06/27 09:09:09;;;;;;;;;;;21.30;72.30;;;;;;5015384;28;1702;-69
2021/06/27 09:11:34;;;;;;;;;;;21.30;72.30;;;;;;5033358;28;1386;-69
2021/06/27 09:14:00;;;;;;;;;;;21.30;72.30;;;;;;5032330;28;1390;-70
2021/06/27 09:16:25;;;;;;;;;;;21.30;72.30;;;;;;5033220;28;1647;-71
2021/06/27 09:18:51;;;;;;;;;;;21.30;72.20;;;;;;5015227;28;1432;-69
2021/06/27 09:21:16;;;;;;;;;;;21.30;72.30;;;;;;5015200;28;1452;-69
2021/06/27 09:23:44;;;;;;;;;;;21.30;72.30;;;;;;5032428;28;1437;-69
2021/06/27 09:26:09;;;;;;;;;;;21.30;72.30;;;;;;5032638;28;1982;-70
2021/06/27 09:28:41;;;;;;;;;;;21.30;72.30;;;;;;5033225;28;1376;-70
2021/06/27 09:31:07;;;;;;;;;;;21.30;72.30;;;;;;5030763;28;1334;-71
2021/06/27 09:33:32;;;;;;;;;;;21.30;72.30;;;;;;5012832;28;1628;-72
2021/06/27 09:36:04;;;;;;;;;;;21.30;72.30;;;;;;5012930;28;1371;-71
2021/06/27 09:38:44;;;;;;;;;;;21.30;72.30;;;;;;5013010;28;1649;-71
2021/06/27 09:41:14;;;;;;;;;;;21.30;72.30;;;;;;4994011;28;1303;-71
2021/06/27 09:43:39;;;;;;;;;;;21.30;72.30;;;;;;5012095;28;1438;-71
2021/06/27 09:46:14;;;;;;;;;;;21.30;72.30;;;;;;4995429;28;1895;-71
2021/06/27 09:48:49;;;;;;;;;;;21.30;72.30;;;;;;5013396;28;1721;-70
2021/06/27 09:51:15;;;;;;;;;;;21.30;72.30;;;;;;5012826;28;1358;-71
2021/06/27 09:53:45;;;;;;;;;;;21.30;72.30;;;;;;4994327;28;1671;-71
2021/06/27 09:56:11;;;;;;;;;;;21.30;72.20;;;;;;5012935;28;1335;-71
2021/06/27 09:58:36;;;;;;;;;;;21.30;72.30;;;;;;5012289;28;1385;-70
2021/06/27 10:01:02;;;;;;;;;;;21.30;72.30;;;;;;4999389;28;1314;-71
2021/06/27 10:03:28;;;;;;;;;;;21.30;72.20;;;;;;5008634;28;1665;-71
2021/06/27 10:06:06;;;;;;;;;;;21.30;72.30;;;;;;5014349;28;1955;-71
2021/06/27 10:08:32;;;;;;;;;;;21.30;72.30;;;;;;5031533;28;1652;-71
2021/06/27 10:11:16;;;;;;;;;;;21.30;72.30;;;;;;5032749;28;1574;-71
2021/06/27 10:13:42;;;;;;;;;;;21.30;72.30;;;;;;5014682;28;1472;-71
2021/06/27 10:16:07;;;;;;;;;;;21.30;72.30;;;;;;5014190;28;1276;-70
2021/06/27 10:18:34;;;;;;;;;;;21.30;72.30;;;;;;5032206;28;1179;-71
2021/06/27 10:20:59;;;;;;;;;;;21.30;72.30;;;;;;5015155;28;1378;-71
2021/06/27 10:23:25;;;;;;;;;;;21.30;72.20;;;;;;5031178;28;1673;-70
2021/06/27 10:25:50;;;;;;;;;;;21.30;72.20;;;;;;5032318;28;1955;-71
2021/06/27 10:28:16;;;;;;;;;;;21.30;72.20;;;;;;5014438;28;1650;-71
2021/06/27 10:30:42;;;;;;;;;;;21.30;72.20;;;;;;5014171;28;1753;-70
2021/06/27 10:33:07;;;;;;;;;;;21.30;72.20;;;;;;5014185;28;1516;-71
2021/06/27 10:35:33;;;;;;;;;;;21.30;72.20;;;;;;4995030;28;1641;-71
2021/06/27 10:37:59;;;;;;;;;;;21.30;72.20;;;;;;4994744;28;1703;-71
2021/06/27 10:40:24;;;;;;;;;;;21.30;72.20;;;;;;5006228;28;1485;-72
2021/06/27 10:42:50;;;;;;;;;;;21.30;72.20;;;;;;5031590;28;1605;-71
2021/06/27 10:45:22;;;;;;;;;;;21.30;72.20;;;;;;5014299;28;1902;-71
2021/06/27 10:47:47;;;;;;;;;;;21.30;72.10;;;;;;4994458;28;2112;-71
2021/06/27 10:50:13;;;;;;;;;;;21.30;72.10;;;;;;4994076;28;1191;-71
2021/06/27 10:52:51;;;;;;;;;;;21.30;72.20;;;;;;5009871;28;1447;-72
2021/06/27 10:55:20;;;;;;;;;;;21.30;72.10;;;;;;5005615;28;1318;-70
2021/06/27 10:57:52;;;;;;;;;;;21.30;72.20;;;;;;5012495;28;1119;-71
2021/06/27 11:00:17;;;;;;;;;;;21.30;72.20;;;;;;5011762;28;1069;-71
2021/06/27 11:02:42;;;;;;;;;;;21.30;72.20;;;;;;5013815;28;1250;-71
2021/06/27 11:05:27;;;;;;;;;;;21.30;72.20;;;;;;5026515;28;1910;-71
2021/06/27 11:07:52;;;;;;;;;;;21.30;72.30;;;;;;5030990;28;1053;-70
2021/06/27 11:10:18;;;;;;;;;;;21.30;72.30;;;;;;5032461;28;1175;-71
2021/06/27 11:12:53;;;;;;;;;;;21.30;72.30;;;;;;5034788;28;1140;-71
2021/06/27 11:15:18;;;;;;;;;;;21.30;72.30;;;;;;5033793;28;1271;-71
2021/06/27 11:17:49;;;;;;;;;;;21.30;72.40;;;;;;4999229;28;1851;-70
2021/06/27 11:20:14;;;;;;;;;;;21.30;72.40;;;;;;5009644;28;1033;-71
2021/06/27 11:22:46;;;;;;;;;;;21.30;72.40;;;;;;5015738;28;1119;-71
2021/06/27 11:25:31;;;;;;;;;;;21.30;72.40;;;;;;5009767;28;1906;-70
2021/06/27 11:27:56;;;;;;;;;;;21.30;72.40;;;;;;5011086;28;1068;-71
2021/06/27 11:30:25;;;;;;;;;;;21.30;72.30;;;;;;5005244;28;1334;-71
2021/06/27 11:32:50;;;;;;;;;;;21.30;72.20;;;;;;4995519;28;1226;-70
2021/06/27 11:35:32;;;;;;;;;;;21.30;72.20;;;;;;5004874;28;1284;-71
2021/06/27 11:37:57;;;;;;;;;;;21.30;72.10;;;;;;5008686;28;1287;-71
2021/06/27 11:40:39;;;;;;;;;;;21.30;72.10;;;;;;5009278;28;1244;-70
2021/06/27 11:43:04;;;;;;;;;;;21.30;72.10;;;;;;4983136;28;1121;-72
2021/06/27 11:45:30;;;;;;;;;;;21.30;72.10;;;;;;5014904;28;1963;-71
2021/06/27 11:47:56;;;;;;;;;;;21.30;72.10;;;;;;5014899;28;1200;-71
2021/06/27 11:50:25;;;;;;;;;;;21.30;72.00;;;;;;4997526;28;1066;-71
2021/06/27 11:52:52;;;;;;;;;;;21.30;71.80;;;;;;5013887;28;1053;-71
2021/06/27 11:55:17;;;;;;;;;;;21.30;71.80;;;;;;4997279;28;1340;-71
2021/06/27 11:57:42;;;;;;;;;;;21.30;71.80;;;;;;4996012;28;1093;-71
2021/06/27 12:00:11;;;;;;;;;;;21.30;71.90;;;;;;5014926;28;1172;-71
2021/06/27 12:02:37;;;;;;;;;;;21.30;71.90;;;;;;5004234;28;1230;-71
2021/06/27 12:05:03;;;;;;;;;;;21.30;72.00;;;;;;5031423;28;2857;-71
2021/06/27 12:07:33;;;;;;;;;;;21.30;72.00;;;;;;5004445;28;3212;-71
2021/06/27 12:09:59;;;;;;;;;;;21.30;72.00;;;;;;5012102;28;2268;-72
2021/06/27 12:12:31;;;;;;;;;;;21.30;72.00;;;;;;5002862;28;2146;-73
2021/06/27 12:14:57;;;;;;;;;;;21.30;71.90;;;;;;4992418;28;2142;-73
2021/06/27 12:17:23;;;;;;;;;;;21.30;71.80;;;;;;5008905;28;1011;-73
2021/06/27 12:19:52;;;;;;;;;;;21.30;71.80;;;;;;5017065;28;1852;-71
2021/06/27 12:22:17;;;;;;;;;;;21.40;71.90;;;;;;5024551;28;2856;-71
2021/06/27 12:24:42;;;;;;;;;;;21.40;71.90;;;;;;5012604;28;1965;-71
2021/06/27 12:27:11;;;;;;;;;;;21.40;71.90;;;;;;5001685;28;1694;-71
2021/06/27 12:29:36;;;;;;;;;;;21.40;71.90;;;;;;5009917;28;1163;-71
2021/06/27 12:32:05;;;;;;;;;;;21.40;71.90;;;;;;5013167;28;1630;-71
2021/06/27 12:34:30;;;;;;;;;;;21.40;71.90;;;;;;5013272;28;1089;-71
2021/06/27 12:36:56;;;;;;;;;;;21.30;71.80;;;;;;5019237;28;1217;-71
2021/06/27 12:39:22;;;;;;;;;;;21.30;71.80;;;;;;4996218;28;1359;-72
2021/06/27 12:41:48;;;;;;;;;;;21.30;71.90;;;;;;4992857;28;2379;-71
2021/06/27 12:44:14;;;;;;;;;;;21.40;72.00;;;;;;5006553;28;1910;-71
2021/06/27 12:46:43;;;;;;;;;;;21.30;72.00;;;;;;5010738;28;1993;-71
2021/06/27 12:49:13;;;;;;;;;;;21.40;72.10;;;;;;5000724;28;1143;-71
2021/06/27 12:51:40;;;;;;;;;;;21.30;72.00;;;;;;4993936;28;1979;-71
2021/06/27 12:54:20;;;;;;;;;;;21.40;72.00;;;;;;5006060;28;2515;-71
2021/06/27 12:56:49;;;;;;;;;;;21.40;72.10;;;;;;5009485;28;1377;-71
2021/06/27 12:59:16;;;;;;;;;;;21.30;72.00;;;;;;4994085;28;1127;-72
2021/06/27 13:01:53;;;;;;;;;;;21.30;72.00;;;;;;5014918;28;1100;-71
2021/06/27 13:04:22;;;;;;;;;;;21.40;72.10;;;;;;5026368;28;1910;-72
2021/06/27 13:06:54;;;;;;;;;;;21.40;72.10;;;;;;5033316;28;1231;-71
2021/06/27 13:09:20;;;;;;;;;;;21.40;72.10;;;;;;5033405;28;1092;-72
2021/06/27 13:12:14;;;;;;;;;;;21.30;72.00;;;;;;5018053;28;1186;-71
2021/06/27 13:14:41;;;;;;;;;;;21.40;72.00;;;;;;4995267;28;1100;-72
2021/06/27 13:17:13;;;;;;;;;;;21.30;72.00;;;;;;4995189;28;1376;-71
2021/06/27 13:19:55;;;;;;;;;;;21.30;71.90;;;;;;4995472;28;1105;-71
2021/06/27 13:22:21;;;;;;;;;;;21.40;72.00;;;;;;4995659;28;1129;-72
2021/06/27 13:25:03;;;;;;;;;;;21.30;71.80;;;;;;5011924;28;1907;-71
2021/06/27 13:27:29;;;;;;;;;;;21.30;71.90;;;;;;5013228;28;1124;-72
2021/06/27 13:30:07;;;;;;;;;;;21.30;71.90;;;;;;5013022;28;1120;-71
2021/06/27 13:32:33;;;;;;;;;;;21.40;72.00;;;;;;5009661;28;1645;-72
2021/06/27 13:34:58;;;;;;;;;;;21.40;72.00;;;;;;5011049;28;1252;-71
2021/06/27 13:37:23;;;;;;;;;;;21.40;72.70;;;;;;5024260;28;1069;-71
2021/06/27 13:39:49;;;;;;;;;;;21.30;71.90;;;;;;5028512;28;1112;-72
2021/06/27 13:42:15;;;;;;;;;;;21.40;71.90;;;;;;5031513;28;1112;-72
2021/06/27 13:44:56;;;;;;;;;;;21.30;71.80;;;;;;5030722;28;1883;-72
2021/06/27 13:47:21;;;;;;;;;;;21.30;71.80;;;;;;5031120;28;1057;-72
2021/06/27 13:49:47;;;;;;;;;;;21.40;71.90;;;;;;5031557;28;1048;-71
2021/06/27 13:52:12;;;;;;;;;;;21.40;72.00;;;;;;5031243;28;1088;-71
2021/06/27 13:54:38;;;;;;;;;;;21.40;71.90;;;;;;5030784;28;1060;-71
2021/06/27 13:57:03;;;;;;;;;;;21.30;71.80;;;;;;5031248;28;1236;-71
2021/06/27 13:59:29;;;;;;;;;;;21.40;71.90;;;;;;5030746;28;1108;-72
2021/06/27 14:01:54;;;;;;;;;;;21.40;71.90;;;;;;5022799;28;1032;-71
2021/06/27 14:04:20;;;;;;;;;;;21.40;71.90;;;;;;5030896;28;1894;-71
2021/06/27 14:06:45;;;;;;;;;;;21.40;71.90;;;;;;5031304;28;1277;-71
2021/06/27 14:09:10;;;;;;;;;;;21.40;71.90;;;;;;5031134;28;1092;-73
2021/06/27 14:11:36;;;;;;;;;;;21.40;71.90;;;;;;4997088;28;1365;-71
2021/06/27 14:14:02;;;;;;;;;;;21.40;71.90;;;;;;5005324;28;1162;-72
2021/06/27 14:16:28;;;;;;;;;;;21.40;72.70;;;;;;5038549;22;2568;-66
2021/06/27 14:18:53;;;;;;;;;;;21.40;72.00;;;;;;5025129;28;1698;-66
2021/06/27 14:21:19;;;;;;;;;;;21.30;71.90;;;;;;5006582;28;1541;-66
2021/06/27 14:23:44;;;;;;;;;;;21.40;72.00;;;;;;5022140;28;1531;-66
2021/06/27 14:26:10;;;;;;;;;;;21.40;72.00;;;;;;5017016;28;1910;-67